Time;durP1;ratioP1;P1;durP2;ratioP2;P2;SDS_P1;SDS_P2;PMS_P1;PMS_P2;Temp;Humidity;BMP_temperature;BMP_pressure;BME280_temperature;BME280_humidity;BME280_pressure;Samples;Min_cycle;Max_cycle;Signal;HPM_P1;HPM_P2
2023/08/22 00:02:46;;;;;;;4.88;2.10;;;;;;;21.37;57.17;101692.06;15619043;28;20049;-49
2023/08/22 00:10:22;;;;;;;6.00;2.40;;;;;;;21.47;57.84;101686.66;15584567;28;20513;-51
2023/08/22 00:17:55;;;;;;;6.07;2.20;;;;;;;21.63;57.31;101693.91;15616092;28;20045;-51
2023/08/22 00:25:31;;;;;;;8.32;2.20;;;;;;;21.55;57.74;101688.13;15616468;28;20041;-52
2023/08/22 00:33:04;;;;;;;7.47;1.98;;;;;;;20.87;58.98;101680.31;15581959;28;20053;-48
2023/08/22 00:40:40;;;;;;;6.30;2.42;;;;;;;21.04;59.92;101680.22;15598445;28;20133;-49
2023/08/22 00:48:15;;;;;;;7.53;2.13;;;;;;;20.99;59.64;101669.25;15598064;28;20085;-49
2023/08/22 00:55:50;;;;;;;6.45;2.92;;;;;;;20.66;61.11;101667.53;15597404;28;20049;-48
2023/08/22 01:03:23;;;;;;;6.97;2.28;;;;;;;20.67;61.21;101661.00;15581668;28;20045;-56
2023/08/22 01:11:07;;;;;;;6.22;2.25;;;;;;;20.80;60.97;101663.34;15597350;28;20128;-50
2023/08/22 01:18:41;;;;;;;6.63;2.47;;;;;;;20.82;61.05;101661.16;15614380;28;20482;-51
2023/08/22 01:26:18;;;;;;;7.72;2.30;;;;;;;20.78;61.11;101662.75;15579510;28;20618;-49
2023/08/22 01:33:57;;;;;;;6.22;2.30;;;;;;;20.99;60.50;101649.34;15613327;28;20145;-50
2023/08/22 01:41:32;;;;;;;8.65;2.45;;;;;;;20.52;61.87;101658.09;15595211;28;20448;-52
2023/08/22 01:49:05;;;;;;;8.02;2.28;;;;;;;20.86;61.18;101651.38;15578114;28;20483;-51
2023/08/22 01:56:39;;;;;;;6.05;2.40;;;;;;;20.64;61.97;101666.94;15594394;28;20041;-50
2023/08/22 02:04:12;;;;;;;11.65;2.60;;;;;;;21.06;60.00;101652.66;15593903;28;20109;-47
2023/08/22 02:11:47;;;;;;;6.25;2.15;;;;;;;20.99;60.77;101638.41;15611495;28;20474;-55
2023/08/22 02:19:23;;;;;;;8.48;2.42;;;;;;;20.89;60.47;101622.78;15594276;28;20100;-49
2023/08/22 02:26:58;;;;;;;8.45;2.13;;;;;;;20.93;61.48;101628.50;15593248;28;20135;-50
2023/08/22 02:34:31;;;;;;;7.53;2.55;;;;;;;20.40;61.93;101633.63;15576454;28;20041;-50
2023/08/22 02:42:07;;;;;;;6.25;2.42;;;;;;;20.57;61.41;101630.88;15603736;28;20051;-50
2023/08/22 02:49:40;;;;;;;9.98;2.47;;;;;;;20.62;61.81;101620.03;15613300;28;20049;-50
2023/08/22 02:57:16;;;;;;;4.00;2.47;;;;;;;20.22;62.68;101610.22;15612495;28;20075;-51
2023/08/22 03:04:49;;;;;;;7.65;2.60;;;;;;;19.97;63.78;101615.34;15611614;28;20041;-50
2023/08/22 03:12:23;;;;;;;7.03;2.47;;;;;;;20.33;62.49;101620.22;15612363;28;20132;-52
2023/08/22 03:19:57;;;;;;;8.57;2.38;;;;;;;20.28;62.84;101605.66;15596490;28;20081;-48
2023/08/22 03:27:33;;;;;;;9.52;2.90;;;;;;;20.50;61.84;101603.78;15629376;28;20052;-53
2023/08/22 03:35:08;;;;;;;8.10;2.63;;;;;;;20.33;62.94;101611.16;15610978;28;20037;-51
2023/08/22 03:42:46;;;;;;;7.75;2.78;;;;;;;19.62;65.01;101597.41;15611182;28;20088;-52
2023/08/22 03:50:19;;;;;;;8.77;2.60;;;;;;;19.91;64.10;101597.28;15609138;28;20374;-50
2023/08/22 03:57:54;;;;;;;7.13;3.22;;;;;;;19.76;64.25;101576.91;15584730;28;20053;-55
2023/08/22 04:05:27;;;;;;;7.75;2.63;;;;;;;19.94;63.70;101577.69;15600474;28;20033;-50
2023/08/22 04:13:02;;;;;;;13.63;3.03;;;;;;;19.77;64.30;101569.56;15599833;28;20064;-50
2023/08/22 04:20:35;;;;;;;11.18;2.60;;;;;;;20.14;62.99;101550.69;15600663;28;20061;-49
2023/08/22 04:28:10;;;;;;;6.25;2.63;;;;;;;20.17;63.01;101543.94;15584060;28;20516;-49
2023/08/22 04:35:44;;;;;;;6.57;2.58;;;;;;;20.13;63.19;101555.31;15599397;28;20431;-51
2023/08/22 04:43:19;;;;;;;9.20;3.08;;;;;;;20.12;63.12;101542.78;15582088;28;20050;-49
2023/08/22 04:51:11;;;;;;;8.52;2.90;;;;;;;19.96;63.18;101530.06;15587342;28;20080;-50
2023/08/22 04:58:46;;;;;;;9.88;3.00;;;;;;;19.78;64.06;101531.19;15597880;28;20041;-55
2023/08/22 05:06:19;;;;;;;8.60;3.20;;;;;;;19.74;63.77;101535.50;15596427;28;20033;-53
2023/08/22 05:13:53;;;;;;;15.55;2.90;;;;;;;19.78;63.46;101527.66;15596147;28;20049;-50
2023/08/22 05:21:27;;;;;;;10.30;2.63;;;;;;;19.85;63.50;101520.91;15596605;28;20043;-50
2023/08/22 05:29:02;;;;;;;9.30;2.63;;;;;;;20.11;62.44;101507.63;15579753;28;20053;-54
2023/08/22 05:36:35;;;;;;;12.75;2.67;;;;;;;19.96;63.00;101508.25;15595787;28;20471;-50
2023/08/22 05:44:10;;;;;;;9.93;2.70;;;;;;;20.22;61.85;101528.44;15578439;28;20103;-49
2023/08/22 05:51:44;;;;;;;11.98;2.63;;;;;;;20.51;61.26;101523.59;15595400;28;20026;-53
2023/08/22 05:59:20;;;;;;;10.30;2.30;;;;;;;20.48;61.95;101526.88;15593791;28;20049;-49
2023/08/22 06:06:53;;;;;;;11.43;2.38;;;;;;;20.35;61.54;101517.16;15593136;28;20041;-52
2023/08/22 06:14:28;;;;;;;11.05;2.67;;;;;;;20.76;62.05;101512.13;15592125;28;20136;-51
2023/08/22 06:22:02;;;;;;;10.43;2.40;;;;;;;20.93;60.17;101528.34;15577419;28;20049;-49
2023/08/22 06:29:39;;;;;;;8.52;2.80;;;;;;;21.22;59.59;101530.78;15576636;28;20092;-52
2023/08/22 06:37:12;;;;;;;9.05;2.63;;;;;;;21.02;59.68;101504.13;15593557;28;20030;-50
2023/08/22 06:44:49;;;;;;;6.72;2.35;;;;;;;21.18;59.05;101500.44;15593537;28;20528;-50
2023/08/22 06:52:22;;;;;;;10.75;1.92;;;;;;;21.55;58.22;101503.16;15575973;28;20042;-52
2023/08/22 06:59:57;;;;;;;14.25;2.33;;;;;;;22.44;56.48;101505.97;15592240;28;20129;-53
2023/08/22 07:07:29;;;;;;;8.48;2.10;;;;;;;22.32;55.66;101507.03;15591583;28;20421;-50
2023/08/22 07:15:07;;;;;;;7.40;1.88;;;;;;;22.81;54.52;101497.53;15591289;28;20077;-52
2023/08/22 07:22:40;;;;;;;9.18;1.80;;;;;;;22.11;54.97;101502.59;15590468;28;20033;-52
2023/08/22 07:30:14;;;;;;;8.65;2.30;;;;;;;22.73;54.67;101500.81;15600184;28;20132;-52
2023/08/22 07:37:47;;;;;;;9.48;1.83;;;;;;;22.68;53.99;101482.47;15619883;28;20049;-54
2023/08/22 07:45:22;;;;;;;6.78;2.08;;;;;;;22.76;53.91;101492.06;15602394;28;20125;-53
2023/08/22 07:52:56;;;;;;;7.10;2.00;;;;;;;22.90;53.30;101474.81;15585785;28;20144;-53
2023/08/22 08:00:31;;;;;;;6.93;1.95;;;;;;;23.12;52.31;101474.50;15601450;28;20041;-52
2023/08/22 08:08:08;;;;;;;9.52;2.05;;;;;;;23.62;51.13;101467.25;15600209;28;20410;-52
2023/08/22 08:15:42;;;;;;;5.63;1.83;;;;;;;23.32;52.02;101490.09;15598862;28;20132;-55
2023/08/22 08:23:16;;;;;;;7.10;1.95;;;;;;;23.85;50.56;101487.75;15599910;28;20045;-51
2023/08/22 08:30:51;;;;;;;6.82;1.58;;;;;;;23.79;50.83;101485.31;15598464;28;20164;-51
2023/08/22 08:38:25;;;;;;;3.90;1.90;;;;;;;23.84;50.94;101477.06;15597560;28;20069;-51
2023/08/22 08:46:00;;;;;;;6.03;1.95;;;;;;;24.19;50.96;101451.38;15615977;28;20046;-54
2023/08/22 08:53:33;;;;;;;5.88;1.50;;;;;;;24.66;50.03;101447.19;15616202;28;20045;-52
2023/08/22 09:01:08;;;;;;;6.80;1.73;;;;;;;25.13;48.23;101459.41;15615965;28;20048;-56
2023/08/22 09:09:03;;;;;;;9.70;3.47;;;;;;;24.99;47.62;101459.25;15597259;28;20056;-52
2023/08/22 09:16:38;;;;;;;5.30;1.75;;;;;;;25.07;48.51;101453.16;15596317;28;20073;-59
2023/08/22 09:24:12;;;;;;;4.72;1.60;;;;;;;25.54;50.44;101451.53;15596040;28;20041;-58
2023/08/22 09:31:46;;;;;;;5.38;1.80;;;;;;;25.56;46.91;101441.09;15595532;28;20047;-56
2023/08/22 09:39:20;;;;;;;8.40;2.10;;;;;;;26.15;45.82;101431.47;15612677;28;20578;-58
2023/08/22 09:46:55;;;;;;;6.95;1.52;;;;;;;26.16;45.04;101404.78;15612123;28;20091;-58
2023/08/22 09:54:30;;;;;;;6.57;1.90;;;;;;;27.22;43.96;101409.56;15577452;28;20051;-58
2023/08/22 10:02:06;;;;;;;9.10;1.70;;;;;;;28.27;41.97;101398.47;15612642;28;20097;-58
2023/08/22 10:09:40;;;;;;;5.05;1.52;;;;;;;27.57;42.28;101407.22;15611968;28;20395;-57
2023/08/22 10:17:15;;;;;;;5.38;1.63;;;;;;;26.91;42.30;101414.84;15593285;28;20137;-53
2023/08/22 10:24:50;;;;;;;4.07;1.60;;;;;;;27.01;41.49;101411.09;15593806;28;20045;-58
2023/08/22 10:32:25;;;;;;;4.97;1.33;;;;;;;26.78;41.86;101413.69;15592812;28;20513;-58
2023/08/22 10:40:03;;;;;;;4.20;1.85;;;;;;;26.48;40.87;101416.97;15610125;28;20060;-56
2023/08/22 10:47:38;;;;;;;8.32;1.80;;;;;;;26.79;40.92;101414.50;15609389;28;20428;-57
2023/08/22 10:55:13;;;;;;;6.55;1.70;;;;;;;27.35;43.33;101396.91;15609620;28;20045;-54
2023/08/22 11:02:49;;;;;;;3.90;1.55;;;;;;;27.36;40.44;101390.28;15615017;28;20045;-55
2023/08/22 11:10:28;;;;;;;7.97;2.20;;;;;;;27.62;41.27;101399.66;15604916;28;20045;-53
2023/08/22 11:18:07;;;;;;;3.67;1.50;;;;;;;27.55;42.38;101403.94;15604117;28;20522;-55
2023/08/22 11:25:41;;;;;;;6.00;2.05;;;;;;;27.03;42.95;101403.31;15620992;28;20050;-57
2023/08/22 11:33:20;;;;;;;4.93;2.17;;;;;;;27.57;43.69;101405.28;15620378;28;20041;-56
2023/08/22 11:40:55;;;;;;;6.83;1.90;;;;;;;28.07;42.93;101407.22;15620061;28;20065;-58
2023/08/22 11:48:33;;;;;;;5.13;1.73;;;;;;;27.62;42.14;101407.09;15619299;28;20042;-54
2023/08/22 11:56:07;;;;;;;8.18;1.83;;;;;;;27.57;44.41;101413.56;15601359;28;20038;-58
2023/08/22 12:03:42;;;;;;;6.20;1.90;;;;;;;27.69;45.10;101422.09;15600068;28;20458;-57
2023/08/22 12:11:24;;;;;;;8.13;2.30;;;;;;;28.12;44.39;101415.38;15583779;28;20045;-57
2023/08/22 12:19:09;;;;;;;7.43;1.92;;;;;;;28.48;44.48;101424.44;15601032;28;20053;-54
2023/08/22 12:26:44;;;;;;;7.10;1.75;;;;;;;28.28;44.66;101424.13;15617542;28;20041;-54
2023/08/22 12:34:22;;;;;;;7.03;2.05;;;;;;;28.66;45.12;101419.03;15616918;28;20057;-55
2023/08/22 12:42:04;;;;;;;4.47;2.08;;;;;;;28.00;44.95;101431.69;15616771;28;20045;-55
2023/08/22 12:49:45;;;;;;;9.05;2.30;;;;;;;27.60;45.46;101434.16;15599177;28;20506;-56
2023/08/22 12:57:27;;;;;;;5.03;1.88;;;;;;;28.78;42.62;101424.00;15615629;28;20052;-54
2023/08/22 13:05:02;;;;;;;3.53;1.95;;;;;;;27.88;43.66;101410.13;15597409;28;20100;-55
2023/08/22 13:12:35;;;;;;;6.05;2.00;;;;;;;27.35;43.29;101419.78;15580080;28;20080;-56
2023/08/22 13:20:11;;;;;;;4.72;2.03;;;;;;;27.19;45.16;101404.69;15614991;28;20133;-54
2023/08/22 13:27:47;;;;;;;7.35;2.10;;;;;;;26.94;43.62;101428.00;15614413;28;20056;-56
2023/08/22 13:35:25;;;;;;;7.50;2.30;;;;;;;26.85;44.32;101429.81;15596432;28;20128;-58
2023/08/22 13:42:58;;;;;;;9.65;2.13;;;;;;;26.95;42.48;101435.97;15613034;28;20053;-58
2023/08/22 13:50:36;;;;;;;8.65;2.00;;;;;;;26.96;43.06;101431.28;15612912;28;20053;-56
2023/08/22 13:58:09;;;;;;;7.22;2.17;;;;;;;26.91;44.29;101432.19;15594354;28;20053;-56
2023/08/22 14:05:47;;;;;;;7.32;2.10;;;;;;;26.94;44.54;101434.31;15594545;28;20053;-59
2023/08/22 14:13:20;;;;;;;5.07;2.05;;;;;;;26.80;44.00;101440.94;15610642;28;20077;-55
2023/08/22 14:20:57;;;;;;;4.72;2.13;;;;;;;26.84;44.47;101429.00;15611561;28;20049;-57
2023/08/22 14:28:30;;;;;;;5.80;2.00;;;;;;;26.75;45.05;101439.09;15594091;28;20156;-56
2023/08/22 14:36:06;;;;;;;4.97;2.10;;;;;;;26.40;44.03;101438.53;15610313;28;20691;-57
2023/08/22 14:43:40;;;;;;;4.78;2.20;;;;;;;26.38;45.05;101457.28;15609954;28;20048;-58
2023/08/22 14:51:15;;;;;;;5.60;2.30;;;;;;;26.63;46.36;101452.53;15610465;28;20068;-58
2023/08/22 14:58:48;;;;;;;6.13;2.42;;;;;;;26.77;44.08;101456.13;15609215;28;20482;-55
2023/08/22 15:06:23;;;;;;;4.57;2.10;;;;;;;26.59;44.23;101448.75;15592000;28;20042;-59
2023/08/22 15:13:57;;;;;;;5.95;2.35;;;;;;;26.47;44.85;101446.44;15664159;23;20056;-50
2023/08/22 15:21:33;;;;;;;6.22;2.55;;;;;;;26.29;44.76;101422.47;15676215;28;20102;-52
2023/08/22 15:29:08;;;;;;;6.75;2.38;;;;;;;26.35;45.84;101419.34;15676794;28;20087;-49
2023/08/22 15:36:42;;;;;;;4.53;2.20;;;;;;;26.67;47.25;101450.78;15675595;28;20047;-51
2023/08/22 15:44:15;;;;;;;8.02;2.40;;;;;;;26.69;46.37;101443.06;15676179;28;20413;-55
2023/08/22 15:51:50;;;;;;;6.72;2.88;;;;;;;26.44;47.52;101442.38;15685006;28;20099;-52
2023/08/22 15:59:23;;;;;;;6.72;2.17;;;;;;;26.45;47.54;101445.94;15685187;28;20144;-49
2023/08/22 16:06:57;;;;;;;4.32;2.70;;;;;;;26.43;47.58;101448.97;15685682;28;20052;-49
2023/08/22 16:14:32;;;;;;;6.18;2.40;;;;;;;26.15;48.71;101455.44;15715788;28;20044;-51
2023/08/22 16:22:06;;;;;;;5.30;2.70;;;;;;;26.01;47.84;101438.03;15762830;28;20046;-52
2023/08/22 16:29:39;;;;;;;6.75;2.50;;;;;;;25.66;49.22;101426.38;15747020;28;20072;-49
2023/08/22 16:37:14;;;;;;;8.00;2.45;;;;;;;25.90;48.55;101413.44;15745209;28;20040;-49
2023/08/22 16:44:48;;;;;;;5.65;2.28;;;;;;;25.83;47.97;101423.97;15747493;28;20036;-54
2023/08/22 16:52:23;;;;;;;7.03;2.67;;;;;;;25.68;48.14;101437.91;15745794;28;20530;-48
2023/08/22 16:59:56;;;;;;;5.40;2.50;;;;;;;25.66;48.41;101432.69;15727445;28;20102;-49
2023/08/22 17:07:30;;;;;;;3.67;2.20;;;;;;;25.91;47.35;101428.81;15759963;28;20037;-52
2023/08/22 17:15:07;;;;;;;7.30;2.10;;;;;;;25.64;46.79;101437.66;15675015;28;20106;-49
2023/08/22 17:22:42;;;;;;;5.30;2.38;;;;;;;25.81;48.58;101426.22;15696927;28;20037;-51
2023/08/22 17:30:15;;;;;;;11.02;2.65;;;;;;;25.50;50.65;101425.75;15697084;28;20071;-49
2023/08/22 17:37:49;;;;;;;9.10;5.75;;;;;;;25.32;50.64;101423.75;15689601;28;20552;-52
2023/08/22 17:45:23;;;;;;;5.78;2.92;;;;;;;25.09;50.26;101417.19;15743169;28;20040;-47
2023/08/22 17:52:57;;;;;;;7.25;2.70;;;;;;;24.84;51.57;101421.78;15743158;28;20096;-47
2023/08/22 18:00:33;;;;;;;9.18;2.90;;;;;;;24.69;51.76;101417.25;15724486;28;20472;-50
2023/08/22 18:08:11;;;;;;;6.13;2.50;;;;;;;24.56;52.48;101420.66;15723595;28;20119;-49
2023/08/22 18:15:45;;;;;;;6.25;3.00;;;;;;;24.48;52.68;101442.41;15722047;28;20036;-49
2023/08/22 18:23:19;;;;;;;6.90;2.95;;;;;;;24.31;53.26;101446.34;15722838;28;20033;-51
2023/08/22 18:30:55;;;;;;;13.05;3.50;;;;;;;24.11;54.19;101463.78;15722179;28;20055;-48
2023/08/22 18:38:30;;;;;;;6.53;3.53;;;;;;;23.77;56.11;101480.09;15739824;28;20119;-49
2023/08/22 18:46:06;;;;;;;6.53;3.40;;;;;;;23.47;56.90;101482.94;15721776;28;20444;-46
2023/08/22 18:53:40;;;;;;;6.82;3.90;;;;;;;23.33;57.45;101482.69;15705807;28;20165;-55
2023/08/22 19:01:13;;;;;;;6.63;4.13;;;;;;;23.15;57.06;101484.91;15722817;28;20079;-47
2023/08/22 19:08:49;;;;;;;6.63;4.00;;;;;;;22.73;58.49;101474.25;15721050;28;20378;-50
2023/08/22 19:16:22;;;;;;;9.30;3.92;;;;;;;22.72;58.41;101478.09;15704106;28;20049;-47
2023/08/22 19:23:56;;;;;;;9.95;4.55;;;;;;;22.59;58.97;101479.44;15744231;28;20044;-48
2023/08/22 19:31:32;;;;;;;9.23;4.50;;;;;;;22.51;58.90;101485.44;15749540;28;20052;-46
2023/08/22 19:39:06;;;;;;;7.00;4.35;;;;;;;22.23;59.83;101473.09;15733115;28;20424;-49
2023/08/22 19:46:39;;;;;;;10.40;4.60;;;;;;;22.00;60.82;101477.09;15750418;28;20045;-51
2023/08/22 19:54:15;;;;;;;8.10;4.70;;;;;;;21.70;61.87;101483.28;15715749;28;20045;-48
2023/08/22 20:01:48;;;;;;;11.85;4.90;;;;;;;21.54;62.41;101492.47;15765481;28;20054;-48
2023/08/22 20:09:22;;;;;;;11.27;5.00;;;;;;;21.30;62.76;101494.78;15748646;28;20044;-51
2023/08/22 20:16:55;;;;;;;7.50;4.63;;;;;;;21.26;63.19;101504.56;15697079;28;20444;-49
2023/08/22 20:24:31;;;;;;;12.32;5.07;;;;;;;20.98;63.96;101501.09;15685426;28;20065;-53
2023/08/22 20:32:04;;;;;;;9.93;4.88;;;;;;;20.82;63.94;101511.06;15683312;28;20122;-55
2023/08/22 20:39:38;;;;;;;11.73;4.75;;;;;;;20.54;64.81;101517.63;15682532;28;20041;-49
2023/08/22 20:47:11;;;;;;;10.85;5.38;;;;;;;20.60;64.25;101507.59;15682560;28;20045;-48
2023/08/22 20:54:46;;;;;;;10.00;4.97;;;;;;;20.47;64.88;101511.59;15683683;28;20045;-52
2023/08/22 21:02:24;;;;;;;7.30;5.05;;;;;;;20.01;66.07;101523.84;15666233;28;20052;-47
2023/08/22 21:10:00;;;;;;;12.18;5.43;;;;;;;20.01;66.29;101524.66;15699288;28;20456;-52
2023/08/22 21:17:33;;;;;;;6.50;4.72;;;;;;;19.86;66.45;101530.75;15737741;28;20049;-53
2023/08/22 21:25:09;;;;;;;9.80;5.50;;;;;;;19.55;67.06;101506.88;15744554;28;20051;-54
2023/08/22 21:32:42;;;;;;;9.40;5.22;;;;;;;19.75;66.24;101518.06;15743023;28;20052;-53
2023/08/22 21:40:19;;;;;;;10.75;6.05;;;;;;;19.78;66.66;101527.66;15758639;28;20041;-54
2023/08/22 21:47:52;;;;;;;11.10;5.50;;;;;;;19.43;67.34;101523.31;15742017;28;20044;-53
2023/08/22 21:55:26;;;;;;;8.80;5.75;;;;;;;19.37;67.81;101518.88;15757470;28;20120;-52
2023/08/22 22:03:00;;;;;;;12.48;5.63;;;;;;;19.39;67.58;101516.69;15741921;28;20045;-52
2023/08/22 22:10:53;;;;;;;9.03;6.10;;;;;;;19.28;68.42;101515.75;15754758;28;20051;-52
2023/08/22 22:18:27;;;;;;;7.72;5.45;;;;;;;19.22;68.49;101514.03;15723510;28;20064;-49
2023/08/22 22:26:03;;;;;;;12.55;6.20;;;;;;;19.30;68.00;101518.19;15755487;28;20109;-49
2023/08/22 22:33:38;;;;;;;10.43;5.65;;;;;;;19.09;68.04;101508.91;15722318;28;20041;-50
2023/08/22 22:41:14;;;;;;;8.65;5.70;;;;;;;18.93;68.82;101509.72;15739817;28;20114;-51
2023/08/22 22:48:46;;;;;;;8.60;5.72;;;;;;;18.83;68.09;101510.38;15704813;28;20148;-51
2023/08/22 22:56:21;;;;;;;11.20;6.45;;;;;;;18.91;67.78;101499.09;15740744;28;20424;-50
2023/08/22 23:03:54;;;;;;;10.70;6.40;;;;;;;18.82;68.15;101493.25;15734090;28;20123;-52
2023/08/22 23:11:31;;;;;;;10.45;6.30;;;;;;;18.67;68.73;101492.97;15762054;28;20497;-54
2023/08/22 23:19:04;;;;;;;10.45;5.80;;;;;;;18.60;69.04;101484.97;15688455;28;20040;-53
2023/08/22 23:26:38;;;;;;;;;;;;;;;18.66;68.79;101482.34;15687851;28;20041;-49
2023/08/22 23:34:11;;;;;;;14.02;6.60;;;;;;;18.49;69.08;101482.31;15703408;28;19931;-51
2023/08/22 23:41:48;;;;;;;14.13;6.47;;;;;;;18.32;69.40;101480.38;15724831;28;20455;-50
2023/08/22 23:49:23;;;;;;;12.43;6.57;;;;;;;18.35;69.60;101484.50;15731271;28;20516;-51
2023/08/22 23:56:59;;;;;;;10.77;7.18;;;;;;;18.31;68.96;101478.72;15731071;28;20075;-51
